createdAt,value
2022-08-04T00:00:43.344Z,15.70
2022-08-04T00:03:20.465Z,17.70
2022-08-04T00:06:00.970Z,23.87
2022-08-04T00:08:40.387Z,15.30
2022-08-04T00:11:15.272Z,19.60
2022-08-04T00:14:02.530Z,23.60
2022-08-04T00:16:38.775Z,15.30
2022-08-04T00:19:13.525Z,20.90
2022-08-04T00:21:48.277Z,16.07
2022-08-04T00:24:17.705Z,16.57
2022-08-04T00:26:46.362Z,19.17
2022-08-04T00:29:16.573Z,19.33
2022-08-04T00:31:56.885Z,16.57
2022-08-04T00:34:27.251Z,20.60
2022-08-04T00:36:56.950Z,16.00
2022-08-04T00:39:26.239Z,19.87
2022-08-04T00:42:15.198Z,16.10
2022-08-04T00:45:01.114Z,19.17
2022-08-04T00:47:44.239Z,17.60
2022-08-04T00:50:17.797Z,15.40
2022-08-04T00:53:07.847Z,16.87
2022-08-04T00:55:57.921Z,18.90
2022-08-04T00:58:40.158Z,15.67
2022-08-04T01:01:18.213Z,20.77
2022-08-04T01:04:04.249Z,17.00
2022-08-04T01:06:42.665Z,20.73
2022-08-04T01:09:25.977Z,14.03
2022-08-04T01:12:16.356Z,17.47
2022-08-04T01:14:58.258Z,14.93
2022-08-04T01:17:42.952Z,19.57
2022-08-04T01:20:12.933Z,16.83
2022-08-04T01:23:15.769Z,20.87
2022-08-04T01:26:43.640Z,19.50
2022-08-04T01:29:11.123Z,16.90
2022-08-04T01:32:04.685Z,18.63
2022-08-04T01:34:37.693Z,14.77
2022-08-04T01:37:13.550Z,16.83
2022-08-04T01:39:51.123Z,21.20
2022-08-04T01:42:32.210Z,18.03
2022-08-04T01:45:05.315Z,15.97
2022-08-04T01:47:36.604Z,21.90
2022-08-04T01:50:09.268Z,18.60
2022-08-04T01:52:38.698Z,15.67
2022-08-04T01:55:10.078Z,19.47
2022-08-04T01:57:43.420Z,20.33
2022-08-04T02:00:18.514Z,22.30
2022-08-04T02:02:47.471Z,19.53
2022-08-04T02:05:18.039Z,15.90
2022-08-04T02:08:15.233Z,16.83
2022-08-04T02:11:10.387Z,19.63
2022-08-04T02:13:50.085Z,17.53
2022-08-04T02:16:30.137Z,19.37
2022-08-04T02:19:05.648Z,17.13
2022-08-04T02:21:42.477Z,16.90
2022-08-04T02:24:17.149Z,20.50
2022-08-04T02:26:50.777Z,15.03
2022-08-04T02:29:21.481Z,16.70
2022-08-04T02:31:57.827Z,15.53
2022-08-04T02:34:31.936Z,17.77
2022-08-04T02:37:01.309Z,16.53
2022-08-04T02:39:48.532Z,17.43
2022-08-04T02:42:18.824Z,16.70
2022-08-04T02:44:59.984Z,20.13
2022-08-04T02:48:29.567Z,17.10
2022-08-04T02:50:28.694Z,17.23
2022-08-04T02:52:59.373Z,16.83
2022-08-04T02:55:30.172Z,19.03
2022-08-04T02:57:59.997Z,19.07
2022-08-04T03:00:28.938Z,17.93
2022-08-04T03:03:13.155Z,17.87
2022-08-04T03:06:01.443Z,17.97
2022-08-04T03:08:58.849Z,14.70
2022-08-04T03:11:57.586Z,17.17
2022-08-04T03:14:51.969Z,16.07
2022-08-04T03:17:53.938Z,14.70
2022-08-04T03:20:44.815Z,15.60
2022-08-04T03:23:45.413Z,18.47
2022-08-04T03:27:08.143Z,16.30
2022-08-04T03:30:12.363Z,18.30
2022-08-04T03:33:18.760Z,15.17
2022-08-04T03:36:28.582Z,11.60
2022-08-04T03:39:37.844Z,13.67
2022-08-04T03:42:29.036Z,14.83
2022-08-04T03:45:45.347Z,14.47
2022-08-04T03:48:54.649Z,13.83
2022-08-04T03:51:56.545Z,14.07
2022-08-04T03:54:54.394Z,13.13
2022-08-04T03:57:39.402Z,15.07
2022-08-04T04:00:10.201Z,12.30
2022-08-04T04:03:28.658Z,17.33
2022-08-04T04:06:22.639Z,13.13
2022-08-04T04:09:20.541Z,11.90
2022-08-04T04:12:23.071Z,16.07
2022-08-04T04:15:02.497Z,12.97
2022-08-04T04:18:00.516Z,11.57
2022-08-04T04:21:14.097Z,10.47
2022-08-04T04:24:01.396Z,11.17
2022-08-04T04:26:56.270Z,12.77
2022-08-04T04:29:48.668Z,10.57
2022-08-04T04:32:24.241Z,14.77
2022-08-04T04:35:11.091Z,8.70
2022-08-04T04:38:06.366Z,12.63
2022-08-04T04:40:47.696Z,8.73
2022-08-04T04:43:51.071Z,13.83
2022-08-04T04:46:31.778Z,12.10
2022-08-04T04:49:05.583Z,11.43
2022-08-04T04:51:43.426Z,10.73
2022-08-04T04:54:21.125Z,11.50
2022-08-04T04:56:54.788Z,12.17
2022-08-04T04:59:28.755Z,8.33
2022-08-04T05:02:23.455Z,9.13
2022-08-04T05:05:07.396Z,10.07
2022-08-04T05:08:45.185Z,8.83
2022-08-04T05:11:14.780Z,11.93
2022-08-04T05:14:35.208Z,9.40
2022-08-04T05:16:41.176Z,9.57
2022-08-04T05:19:20.532Z,12.33
2022-08-04T05:21:50.856Z,10.73
2022-08-04T05:24:21.455Z,13.33
2022-08-04T05:26:54.454Z,9.33
2022-08-04T05:29:31.935Z,12.27
2022-08-04T05:32:06.727Z,10.30
2022-08-04T05:34:42.003Z,10.87
2022-08-04T05:37:15.988Z,10.97
2022-08-04T05:39:47.700Z,11.80
2022-08-04T05:42:16.657Z,11.63
2022-08-04T05:44:50.802Z,13.30
2022-08-04T05:47:22.483Z,18.17
2022-08-04T05:49:55.588Z,9.87
2022-08-04T05:52:32.503Z,8.80
2022-08-04T05:55:02.522Z,7.93
2022-08-04T05:57:31.402Z,10.30
2022-08-04T06:00:14.870Z,11.53
2022-08-04T06:02:55.290Z,18.50
2022-08-04T06:05:24.880Z,7.53
2022-08-04T06:08:12.604Z,9.17
2022-08-04T06:10:43.601Z,7.90
2022-08-04T06:13:48.217Z,14.03
2022-08-04T06:16:03.928Z,9.40
2022-08-04T06:20:00.685Z,8.30
2022-08-04T06:21:27.857Z,9.37
2022-08-04T06:24:02.377Z,11.70
2022-08-04T06:26:35.330Z,8.70
2022-08-04T06:29:04.580Z,7.00
2022-08-04T06:32:31.311Z,9.10
2022-08-04T06:34:36.652Z,8.30
2022-08-04T06:37:05.481Z,11.60
2022-08-04T06:39:35.022Z,15.17
2022-08-04T06:42:21.398Z,11.03
2022-08-04T06:44:53.333Z,11.40
2022-08-04T06:47:22.844Z,9.73
2022-08-04T06:51:32.389Z,9.20
2022-08-04T06:52:46.999Z,9.10
2022-08-04T06:55:15.272Z,7.10
2022-08-04T06:57:45.641Z,10.83
2022-08-04T07:00:15.464Z,11.00
2022-08-04T07:02:46.967Z,6.30
2022-08-04T07:05:17.619Z,13.80
2022-08-04T07:07:56.441Z,6.53
2022-08-04T07:10:26.353Z,7.43
2022-08-04T07:12:54.648Z,8.67
2022-08-04T07:15:23.685Z,9.37
2022-08-04T07:17:53.411Z,7.37
2022-08-04T07:20:34.911Z,7.07
2022-08-04T07:23:04.845Z,11.90
2022-08-04T07:25:58.826Z,6.63
2022-08-04T07:28:23.603Z,11.07
2022-08-04T07:30:52.031Z,10.13
2022-08-04T07:33:20.801Z,6.50
2022-08-04T07:36:10.758Z,11.57
2022-08-04T07:38:50.822Z,5.33
2022-08-04T07:41:38.737Z,9.03
2022-08-04T07:44:07.969Z,4.77
2022-08-04T07:46:36.438Z,7.50
2022-08-04T07:49:05.561Z,3.90
2022-08-04T07:51:36.922Z,6.07
2022-08-04T07:54:07.695Z,8.80
2022-08-04T07:56:38.430Z,7.67
2022-08-04T07:59:07.244Z,6.27
2022-08-04T08:01:36.943Z,8.73
2022-08-04T08:04:07.571Z,5.00
2022-08-04T08:06:43.087Z,5.73
2022-08-04T08:09:14.737Z,8.57
2022-08-04T08:12:38.718Z,4.93
2022-08-04T08:14:32.182Z,5.17
2022-08-04T08:17:02.429Z,5.37
2022-08-04T08:19:31.123Z,3.67
2022-08-04T08:22:02.119Z,5.83
2022-08-04T08:24:31.607Z,6.87
2022-08-04T08:27:00.503Z,4.53
2022-08-04T08:29:30.839Z,5.23
2022-08-04T08:32:02.875Z,7.80
2022-08-04T08:34:35.589Z,7.33
2022-08-04T08:37:12.506Z,7.97
2022-08-04T08:39:47.912Z,7.20
2022-08-04T08:42:57.631Z,5.87
2022-08-04T08:46:06.751Z,6.10
2022-08-04T08:49:00.641Z,4.93
2022-08-04T08:51:48.140Z,3.57
2022-08-04T08:54:45.300Z,3.97
2022-08-04T08:57:42.463Z,6.23
2022-08-04T09:00:34.829Z,2.77
2022-08-04T09:03:27.938Z,4.03
2022-08-04T09:06:36.035Z,4.30
2022-08-04T09:09:49.821Z,3.90
2022-08-04T09:12:27.985Z,4.60
2022-08-04T09:15:04.306Z,5.90
2022-08-04T09:17:38.381Z,3.70
2022-08-04T09:20:14.136Z,4.67
2022-08-04T09:22:50.628Z,3.20
2022-08-04T09:25:25.682Z,7.17
2022-08-04T09:27:56.777Z,5.03
2022-08-04T09:30:33.680Z,3.60
2022-08-04T09:33:13.905Z,3.80
2022-08-04T09:35:53.657Z,5.27
2022-08-04T09:38:36.010Z,6.93
2022-08-04T09:41:26.906Z,2.83
2022-08-04T09:44:48.869Z,4.17
2022-08-04T09:47:25.675Z,3.80
2022-08-04T09:50:17.716Z,3.73
2022-08-04T09:52:54.112Z,2.80
2022-08-04T09:55:54.610Z,5.33
2022-08-04T09:58:34.199Z,4.50
2022-08-04T10:01:11.311Z,3.17
2022-08-04T10:03:42.494Z,3.87
2022-08-04T10:06:41.819Z,4.57
2022-08-04T10:09:22.173Z,13.38
2022-08-04T10:12:09.264Z,35.67
2022-08-04T10:14:41.658Z,7.73
2022-08-04T10:17:27.586Z,8.27
2022-08-04T10:20:08.998Z,4.20
2022-08-04T10:22:55.961Z,3.88
2022-08-04T10:26:05.429Z,3.15
2022-08-04T10:28:31.486Z,3.53
2022-08-04T10:31:05.619Z,3.00
2022-08-04T10:33:42.852Z,2.97
2022-08-04T10:36:17.696Z,3.67
2022-08-04T10:38:53.324Z,3.08
2022-08-04T10:41:30.743Z,2.95
2022-08-04T10:44:16.045Z,4.05
2022-08-04T10:46:50.898Z,3.30
2022-08-04T10:49:25.073Z,4.68
2022-08-04T10:52:02.897Z,5.80
2022-08-04T10:54:43.938Z,6.05
2022-08-04T10:57:16.762Z,5.43
2022-08-04T10:59:52.406Z,4.80
2022-08-04T11:02:38.696Z,6.97
2022-08-04T11:05:16.525Z,3.63
2022-08-04T11:07:48.336Z,3.58
2022-08-04T11:10:19.004Z,3.45
2022-08-04T11:12:50.520Z,2.90
2022-08-04T11:15:24.532Z,3.42
2022-08-04T11:17:57.623Z,4.20
2022-08-04T11:20:36.632Z,4.30
2022-08-04T11:23:09.436Z,4.70
2022-08-04T11:25:51.241Z,3.35
2022-08-04T11:28:32.500Z,5.55
2022-08-04T11:31:05.459Z,3.53
2022-08-04T11:33:42.384Z,3.95
2022-08-04T11:36:21.013Z,5.50
2022-08-04T11:38:54.485Z,3.40
2022-08-04T11:41:37.851Z,5.00
2022-08-04T11:44:12.259Z,3.90
2022-08-04T11:46:44.135Z,5.88
2022-08-04T11:49:22.109Z,6.93
2022-08-04T11:51:54.079Z,3.67
2022-08-04T11:54:23.247Z,3.70
2022-08-04T11:56:51.555Z,3.53
2022-08-04T11:59:24.760Z,2.80
2022-08-04T12:02:07.737Z,5.95
2022-08-04T12:04:48.058Z,4.35
2022-08-04T12:07:40.696Z,8.10
2022-08-04T12:10:41.345Z,6.35
2022-08-04T12:13:20.043Z,7.20
2022-08-04T12:15:58.432Z,5.63
2022-08-04T12:18:34.239Z,5.63
2022-08-04T12:21:09.098Z,5.82
2022-08-04T12:23:44.029Z,11.93
2022-08-04T12:26:18.392Z,8.20
2022-08-04T12:31:45.653Z,8.10
2022-08-04T12:34:18.776Z,8.82
2022-08-04T12:36:55.746Z,5.63
2022-08-04T12:39:28.313Z,5.63
2022-08-04T12:42:04.694Z,7.07
2022-08-04T12:44:37.284Z,5.75
2022-08-04T12:47:28.055Z,17.25
2022-08-04T12:50:01.769Z,8.57
2022-08-04T12:53:00.300Z,6.13
2022-08-04T12:55:25.167Z,7.57
2022-08-04T12:57:54.692Z,6.00
2022-08-04T13:00:31.133Z,3.70
2022-08-04T13:03:10.138Z,5.43
2022-08-04T13:05:41.782Z,6.97
2022-08-04T13:08:11.704Z,12.65
2022-08-04T13:10:44.921Z,7.57
2022-08-04T13:13:17.091Z,5.93
2022-08-04T13:18:50.094Z,5.50
2022-08-04T13:21:23.074Z,3.75
2022-08-04T13:24:09.892Z,7.18
2022-08-04T13:26:57.871Z,5.00
2022-08-04T13:29:59.400Z,5.95
2022-08-04T13:30:24.737Z,8.98
2022-08-04T13:32:26.286Z,4.03
2022-08-04T13:34:56.913Z,7.93
2022-08-04T13:37:31.571Z,8.13
2022-08-04T13:40:01.092Z,6.20
2022-08-04T13:42:31.934Z,5.97
2022-08-04T13:45:01.916Z,3.45
2022-08-04T13:47:33.969Z,9.55
2022-08-04T13:50:27.547Z,5.38
2022-08-04T13:52:57.902Z,6.32
2022-08-04T13:55:29.426Z,7.20
2022-08-04T13:58:04.133Z,10.88
2022-08-04T14:00:49.059Z,9.07
2022-08-04T14:03:31.772Z,7.13
2022-08-04T14:06:10.642Z,6.38
2022-08-04T14:08:47.956Z,5.60
2022-08-04T14:12:06.937Z,3.50
2022-08-04T14:14:20.024Z,6.60
2022-08-04T14:17:03.742Z,4.67
2022-08-04T14:19:49.853Z,3.90
2022-08-04T14:22:40.053Z,4.10
2022-08-04T14:25:15.710Z,4.20
2022-08-04T14:27:46.021Z,2.77
2022-08-04T14:30:29.367Z,4.97
2022-08-04T14:34:01.616Z,5.10
2022-08-04T14:35:58.855Z,5.67
2022-08-04T14:38:44.161Z,3.50
2022-08-04T14:41:12.851Z,3.30
2022-08-04T14:43:46.025Z,3.50
2022-08-04T14:46:16.694Z,5.50
2022-08-04T14:49:03.525Z,4.20
2022-08-04T14:51:36.949Z,4.73
2022-08-04T14:54:08.555Z,3.53
2022-08-04T14:56:47.660Z,4.13
2022-08-04T14:59:15.936Z,4.83
2022-08-04T15:02:01.247Z,2.73
2022-08-04T15:04:32.304Z,4.40
2022-08-04T15:07:04.515Z,2.70
2022-08-04T15:09:33.744Z,2.93
2022-08-04T15:12:02.481Z,2.23
2022-08-04T15:14:37.545Z,2.50
2022-08-04T15:17:12.469Z,2.87
2022-08-04T15:19:57.600Z,3.80
2022-08-04T15:22:25.776Z,4.27
2022-08-04T15:24:55.411Z,2.50
2022-08-04T15:27:26.599Z,3.27
2022-08-04T15:30:01.671Z,3.37
2022-08-04T15:32:35.240Z,2.23
2022-08-04T15:35:06.627Z,3.07
2022-08-04T15:37:44.455Z,2.90
2022-08-04T15:40:15.631Z,2.43
2022-08-04T15:42:49.018Z,2.40
2022-08-04T15:46:02.366Z,1.90
2022-08-04T15:48:32.343Z,2.53
2022-08-04T15:51:15.017Z,5.03
2022-08-04T15:54:24.466Z,2.20
2022-08-04T15:57:02.234Z,1.83
2022-08-04T15:59:57.047Z,2.20
2022-08-04T16:02:40.088Z,4.40
2022-08-04T16:05:36.727Z,2.33
2022-08-04T16:08:12.958Z,2.00
2022-08-04T16:10:42.873Z,2.27
2022-08-04T16:13:14.473Z,2.83
2022-08-04T16:15:45.533Z,2.37
2022-08-04T16:18:26.198Z,2.03
2022-08-04T16:21:02.749Z,3.43
2022-08-04T16:24:02.264Z,3.07
2022-08-04T16:26:46.200Z,2.10
2022-08-04T16:29:40.317Z,3.13
2022-08-04T16:32:22.905Z,3.37
2022-08-04T16:34:56.950Z,4.20
2022-08-04T16:37:33.301Z,1.77
2022-08-04T16:40:33.650Z,5.20
2022-08-04T16:43:07.990Z,2.47
2022-08-04T16:45:47.846Z,2.27
2022-08-04T16:48:17.304Z,3.47
2022-08-04T16:50:51.522Z,5.27
2022-08-04T16:54:02.898Z,2.53
2022-08-04T16:56:11.531Z,1.80
2022-08-04T16:58:50.048Z,2.20
2022-08-04T17:01:32.492Z,2.47
2022-08-04T17:04:06.031Z,1.87
2022-08-04T17:06:39.703Z,3.23
2022-08-04T17:09:12.383Z,3.00
2022-08-04T17:11:41.410Z,1.50
2022-08-04T17:14:09.664Z,2.87
2022-08-04T17:16:39.635Z,1.73
2022-08-04T17:19:24.058Z,3.17
2022-08-04T17:22:03.007Z,4.73
2022-08-04T17:24:38.341Z,1.73
2022-08-04T17:28:19.054Z,1.93
2022-08-04T17:29:56.436Z,1.60
2022-08-04T17:32:25.151Z,2.03
2022-08-04T17:34:57.471Z,3.03
2022-08-04T17:37:38.143Z,4.63
2022-08-04T17:40:13.305Z,2.47
2022-08-04T17:42:45.265Z,4.90
2022-08-04T17:45:51.409Z,3.77
2022-08-04T17:48:09.084Z,3.07
2022-08-04T17:50:43.524Z,1.93
2022-08-04T17:54:01.826Z,3.70
2022-08-04T18:02:22.877Z,4.30
2022-08-04T18:05:07.491Z,5.10
2022-08-04T18:08:38.396Z,5.03
2022-08-04T18:10:51.809Z,5.53
2022-08-04T18:13:27.723Z,6.13
2022-08-04T18:16:03.528Z,7.43
2022-08-04T18:18:32.169Z,10.70
2022-08-04T18:21:02.975Z,6.67
2022-08-04T18:23:32.767Z,7.37
2022-08-04T18:26:02.200Z,14.37
2022-08-04T18:28:33.275Z,10.00
2022-08-04T18:31:02.836Z,12.27
2022-08-04T18:33:40.926Z,9.93
2022-08-04T18:36:33.516Z,13.00
2022-08-04T18:39:13.698Z,10.57
2022-08-04T18:42:00.803Z,11.07
2022-08-04T18:44:32.668Z,7.00
2022-08-04T18:47:23.355Z,8.93
2022-08-04T18:50:59.425Z,6.57
2022-08-04T18:52:42.037Z,10.43
2022-08-04T18:55:55.615Z,9.63
2022-08-04T18:58:07.015Z,9.57
2022-08-04T19:00:37.392Z,9.43
2022-08-04T19:03:16.610Z,10.17
2022-08-04T19:05:51.787Z,10.33
2022-08-04T19:08:33.280Z,7.30
2022-08-04T19:11:29.296Z,6.03
2022-08-04T19:13:58.199Z,8.80
2022-08-04T19:16:29.353Z,6.47
2022-08-04T19:18:58.036Z,6.50
2022-08-04T19:22:00.283Z,7.67
2022-08-04T19:24:31.227Z,7.67
2022-08-04T19:27:07.353Z,6.47
2022-08-04T19:29:41.052Z,3.97
2022-08-04T19:32:15.819Z,5.57
2022-08-04T19:34:47.371Z,4.83
2022-08-04T19:37:58.391Z,6.87
2022-08-04T19:40:06.673Z,5.27
2022-08-04T19:42:35.397Z,5.80
2022-08-04T19:45:03.938Z,4.30
2022-08-04T19:48:12.037Z,5.07
2022-08-04T19:50:23.633Z,7.07
2022-08-04T19:52:52.900Z,5.53
2022-08-04T19:55:36.582Z,8.80
2022-08-04T19:58:07.301Z,7.47
2022-08-04T20:00:37.877Z,6.10
2022-08-04T20:03:11.426Z,9.97
2022-08-04T20:05:54.323Z,7.57
2022-08-04T20:08:24.727Z,10.53
2022-08-04T20:10:54.796Z,9.50
2022-08-04T20:13:25.434Z,9.13
2022-08-04T20:16:05.779Z,9.70
2022-08-04T20:18:59.564Z,9.17
2022-08-04T20:21:54.036Z,9.53
2022-08-04T20:24:37.844Z,9.83
2022-08-04T20:27:08.933Z,9.47
2022-08-04T20:29:43.388Z,9.87
2022-08-04T20:32:15.263Z,11.20
2022-08-04T20:34:44.775Z,8.93
2022-08-04T20:37:15.440Z,8.37
2022-08-04T20:39:43.742Z,8.97
2022-08-04T20:42:12.550Z,10.63
2022-08-04T20:44:46.412Z,8.43
2022-08-04T20:47:15.199Z,7.63
2022-08-04T20:49:44.729Z,8.20
2022-08-04T20:52:20.115Z,10.20
2022-08-04T20:54:49.331Z,7.00
2022-08-04T20:57:48.879Z,9.90
2022-08-04T21:00:13.840Z,7.40
2022-08-04T21:02:41.996Z,8.57
2022-08-04T21:05:13.983Z,8.13
2022-08-04T21:07:48.650Z,7.87
2022-08-04T21:10:17.355Z,7.63
2022-08-04T21:12:52.813Z,6.93
2022-08-04T21:15:24.968Z,5.20
2022-08-04T21:17:58.041Z,5.53
2022-08-04T21:20:33.358Z,5.03
2022-08-04T21:23:03.666Z,4.10
2022-08-04T21:25:42.552Z,3.57
2022-08-04T21:28:11.258Z,8.90
2022-08-04T21:30:54.726Z,5.67
2022-08-04T21:33:49.947Z,4.50
2022-08-04T21:36:16.174Z,4.60
2022-08-04T21:38:51.243Z,5.17
2022-08-04T21:41:24.992Z,4.53
2022-08-04T21:43:55.748Z,6.07
2022-08-04T21:46:24.229Z,5.17
2022-08-04T21:48:52.444Z,6.10
2022-08-04T21:51:58.544Z,4.90
2022-08-04T21:57:00.137Z,4.93
2022-08-04T21:59:31.688Z,6.90
2022-08-04T22:02:01.711Z,4.40
2022-08-04T22:04:30.906Z,6.77
2022-08-04T22:07:03.024Z,4.17
2022-08-04T22:12:22.327Z,4.23
2022-08-04T22:14:57.517Z,9.90
2022-08-04T22:17:35.311Z,3.97
2022-08-04T22:20:05.404Z,7.23
2022-08-04T22:22:37.789Z,4.73
2022-08-04T22:25:13.345Z,4.77
2022-08-04T22:28:01.686Z,7.43
2022-08-04T22:30:36.367Z,7.40
2022-08-04T22:33:07.510Z,5.10
2022-08-04T22:35:48.686Z,5.70
2022-08-04T22:38:21.311Z,4.30
2022-08-04T22:40:58.411Z,4.17
2022-08-04T22:43:32.881Z,5.10
2022-08-04T22:46:05.442Z,5.03
2022-08-04T22:48:36.425Z,5.37
2022-08-04T22:51:06.952Z,7.23
2022-08-04T22:53:36.842Z,4.93
2022-08-04T22:56:07.010Z,4.57
2022-08-04T22:58:45.075Z,4.40
2022-08-04T23:01:14.967Z,5.70
2022-08-04T23:03:51.014Z,5.07
2022-08-04T23:06:28.622Z,5.97
2022-08-04T23:08:59.283Z,4.53
2022-08-04T23:11:34.499Z,6.90
2022-08-04T23:14:05.322Z,5.00
2022-08-04T23:16:40.896Z,4.77
2022-08-04T23:19:15.239Z,5.30
2022-08-04T23:21:47.647Z,4.23
2022-08-04T23:24:17.466Z,5.03
2022-08-04T23:26:47.713Z,7.57
2022-08-04T23:29:15.821Z,5.63
2022-08-04T23:31:59.959Z,7.90
2022-08-04T23:34:29.373Z,8.30
2022-08-04T23:37:16.481Z,6.50
2022-08-04T23:40:15.762Z,6.17
2022-08-04T23:42:46.318Z,3.53
2022-08-04T23:45:15.226Z,4.53
2022-08-04T23:48:15.267Z,8.20
2022-08-04T23:50:47.240Z,4.83
2022-08-04T23:53:18.687Z,5.30
2022-08-04T23:56:19.581Z,4.80
2022-08-04T23:58:53.948Z,5.27
